sensor_id;sensor_type;location;lat;lon;timestamp;P1;durP1;ratioP1;P2;durP2;ratioP2
13785;SDS011;47474;48.824;9.384;2023-05-09T00:01:40;11.75;;;10.57;;
13785;SDS011;47474;48.824;9.384;2023-05-09T00:04:09;11.98;;;10.52;;
13785;SDS011;47474;48.824;9.384;2023-05-09T00:06:35;11.48;;;9.70;;
13785;SDS011;47474;48.824;9.384;2023-05-09T00:09:03;11.80;;;9.43;;
13785;SDS011;47474;48.824;9.384;2023-05-09T00:11:30;10.57;;;9.48;;
13785;SDS011;47474;48.824;9.384;2023-05-09T00:13:56;11.38;;;10.10;;
13785;SDS011;47474;48.824;9.384;2023-05-09T00:16:23;10.32;;;9.32;;
13785;SDS011;47474;48.824;9.384;2023-05-09T00:18:51;11.05;;;9.95;;
13785;SDS011;47474;48.824;9.384;2023-05-09T00:21:18;14.52;;;11.02;;
13785;SDS011;47474;48.824;9.384;2023-05-09T00:23:45;10.70;;;9.57;;
13785;SDS011;47474;48.824;9.384;2023-05-09T00:26:11;10.68;;;9.63;;
13785;SDS011;47474;48.824;9.384;2023-05-09T00:28:38;11.93;;;9.18;;
13785;SDS011;47474;48.824;9.384;2023-05-09T00:31:05;12.00;;;10.27;;
13785;SDS011;47474;48.824;9.384;2023-05-09T00:33:31;11.82;;;10.60;;
13785;SDS011;47474;48.824;9.384;2023-05-09T00:35:59;11.40;;;10.30;;
13785;SDS011;47474;48.824;9.384;2023-05-09T00:38:26;11.85;;;10.68;;
13785;SDS011;47474;48.824;9.384;2023-05-09T00:40:52;12.18;;;10.98;;
13785;SDS011;47474;48.824;9.384;2023-05-09T00:43:19;13.27;;;10.73;;
13785;SDS011;47474;48.824;9.384;2023-05-09T00:45:46;13.80;;;10.45;;
13785;SDS011;47474;48.824;9.384;2023-05-09T00:48:13;11.52;;;10.43;;
13785;SDS011;47474;48.824;9.384;2023-05-09T00:50:39;11.48;;;10.35;;
13785;SDS011;47474;48.824;9.384;2023-05-09T00:53:07;11.27;;;10.07;;
13785;SDS011;47474;48.824;9.384;2023-05-09T00:55:34;12.10;;;10.90;;
13785;SDS011;47474;48.824;9.384;2023-05-09T00:58:01;13.70;;;11.90;;
13785;SDS011;47474;48.824;9.384;2023-05-09T01:00:28;13.35;;;11.98;;
13785;SDS011;47474;48.824;9.384;2023-05-09T01:02:54;12.65;;;11.43;;
13785;SDS011;47474;48.824;9.384;2023-05-09T01:05:21;13.70;;;12.30;;
13785;SDS011;47474;48.824;9.384;2023-05-09T01:07:51;15.02;;;12.25;;
13785;SDS011;47474;48.824;9.384;2023-05-09T01:10:24;12.75;;;11.43;;
13785;SDS011;47474;48.824;9.384;2023-05-09T01:12:58;12.93;;;11.68;;
13785;SDS011;47474;48.824;9.384;2023-05-09T01:15:30;12.98;;;11.75;;
13785;SDS011;47474;48.824;9.384;2023-05-09T01:18:00;13.65;;;11.95;;
13785;SDS011;47474;48.824;9.384;2023-05-09T01:20:31;13.38;;;11.77;;
13785;SDS011;47474;48.824;9.384;2023-05-09T01:23:20;14.25;;;12.75;;
13785;SDS011;47474;48.824;9.384;2023-05-09T01:26:02;15.02;;;12.60;;
13785;SDS011;47474;48.824;9.384;2023-05-09T01:28:33;15.35;;;12.75;;
13785;SDS011;47474;48.824;9.384;2023-05-09T01:31:04;14.37;;;12.87;;
13785;SDS011;47474;48.824;9.384;2023-05-09T01:33:32;16.63;;;13.07;;
13785;SDS011;47474;48.824;9.384;2023-05-09T01:36:00;15.48;;;13.88;;
13785;SDS011;47474;48.824;9.384;2023-05-09T01:38:29;15.05;;;13.45;;
13785;SDS011;47474;48.824;9.384;2023-05-09T01:40:56;17.02;;;13.73;;
13785;SDS011;47474;48.824;9.384;2023-05-09T01:43:24;17.37;;;13.60;;
13785;SDS011;47474;48.824;9.384;2023-05-09T01:45:53;17.88;;;13.95;;
13785;SDS011;47474;48.824;9.384;2023-05-09T01:48:22;15.70;;;13.43;;
13785;SDS011;47474;48.824;9.384;2023-05-09T01:50:51;15.13;;;13.63;;
13785;SDS011;47474;48.824;9.384;2023-05-09T01:53:17;15.23;;;13.53;;
13785;SDS011;47474;48.824;9.384;2023-05-09T01:55:45;15.83;;;14.23;;
13785;SDS011;47474;48.824;9.384;2023-05-09T01:58:12;15.43;;;13.37;;
13785;SDS011;47474;48.824;9.384;2023-05-09T02:00:40;15.33;;;13.83;;
13785;SDS011;47474;48.824;9.384;2023-05-09T02:03:07;15.37;;;13.50;;
13785;SDS011;47474;48.824;9.384;2023-05-09T02:05:35;14.47;;;12.97;;
13785;SDS011;47474;48.824;9.384;2023-05-09T02:08:02;16.67;;;13.75;;
13785;SDS011;47474;48.824;9.384;2023-05-09T02:10:28;19.37;;;14.97;;
13785;SDS011;47474;48.824;9.384;2023-05-09T02:12:55;15.75;;;14.02;;
13785;SDS011;47474;48.824;9.384;2023-05-09T02:15:22;14.90;;;13.30;;
13785;SDS011;47474;48.824;9.384;2023-05-09T02:17:49;15.83;;;14.13;;
13785;SDS011;47474;48.824;9.384;2023-05-09T02:20:16;15.53;;;13.67;;
13785;SDS011;47474;48.824;9.384;2023-05-09T02:22:44;16.33;;;14.63;;
13785;SDS011;47474;48.824;9.384;2023-05-09T02:25:11;16.53;;;14.83;;
13785;SDS011;47474;48.824;9.384;2023-05-09T02:27:40;17.70;;;14.87;;
13785;SDS011;47474;48.824;9.384;2023-05-09T02:30:09;16.93;;;14.97;;
13785;SDS011;47474;48.824;9.384;2023-05-09T02:32:38;18.43;;;15.33;;
13785;SDS011;47474;48.824;9.384;2023-05-09T02:35:05;17.60;;;15.63;;
13785;SDS011;47474;48.824;9.384;2023-05-09T02:37:34;19.13;;;15.53;;
13785;SDS011;47474;48.824;9.384;2023-05-09T02:40:03;15.30;;;13.80;;
13785;SDS011;47474;48.824;9.384;2023-05-09T02:42:33;17.50;;;15.17;;
13785;SDS011;47474;48.824;9.384;2023-05-09T02:44:59;17.83;;;15.93;;
13785;SDS011;47474;48.824;9.384;2023-05-09T02:47:26;15.73;;;13.98;;
13785;SDS011;47474;48.824;9.384;2023-05-09T02:49:53;15.32;;;13.43;;
13785;SDS011;47474;48.824;9.384;2023-05-09T02:52:19;15.80;;;13.70;;
13785;SDS011;47474;48.824;9.384;2023-05-09T02:54:46;15.70;;;14.13;;
13785;SDS011;47474;48.824;9.384;2023-05-09T02:57:14;16.40;;;14.07;;
13785;SDS011;47474;48.824;9.384;2023-05-09T02:59:40;19.42;;;14.48;;
13785;SDS011;47474;48.824;9.384;2023-05-09T03:02:07;17.80;;;15.10;;
13785;SDS011;47474;48.824;9.384;2023-05-09T03:04:33;17.13;;;14.43;;
13785;SDS011;47474;48.824;9.384;2023-05-09T03:07:00;18.73;;;14.67;;
13785;SDS011;47474;48.824;9.384;2023-05-09T03:09:26;16.65;;;14.85;;
13785;SDS011;47474;48.824;9.384;2023-05-09T03:11:53;19.13;;;16.13;;
13785;SDS011;47474;48.824;9.384;2023-05-09T03:14:22;16.63;;;14.70;;
13785;SDS011;47474;48.824;9.384;2023-05-09T03:16:48;17.70;;;15.70;;
13785;SDS011;47474;48.824;9.384;2023-05-09T03:19:15;16.90;;;15.10;;
13785;SDS011;47474;48.824;9.384;2023-05-09T03:21:41;16.43;;;14.73;;
13785;SDS011;47474;48.824;9.384;2023-05-09T03:24:08;15.73;;;14.10;;
13785;SDS011;47474;48.824;9.384;2023-05-09T03:26:35;16.03;;;14.00;;
13785;SDS011;47474;48.824;9.384;2023-05-09T03:29:02;16.67;;;14.93;;
13785;SDS011;47474;48.824;9.384;2023-05-09T03:31:30;17.07;;;14.97;;
13785;SDS011;47474;48.824;9.384;2023-05-09T03:33:56;16.20;;;14.50;;
13785;SDS011;47474;48.824;9.384;2023-05-09T03:36:23;15.30;;;13.70;;
13785;SDS011;47474;48.824;9.384;2023-05-09T03:38:50;15.77;;;13.70;;
13785;SDS011;47474;48.824;9.384;2023-05-09T03:41:16;17.15;;;13.68;;
13785;SDS011;47474;48.824;9.384;2023-05-09T03:43:43;16.77;;;14.97;;
13785;SDS011;47474;48.824;9.384;2023-05-09T03:46:10;16.93;;;14.43;;
13785;SDS011;47474;48.824;9.384;2023-05-09T03:48:38;16.53;;;14.00;;
13785;SDS011;47474;48.824;9.384;2023-05-09T03:51:04;15.63;;;13.98;;
13785;SDS011;47474;48.824;9.384;2023-05-09T03:53:31;17.23;;;13.93;;
13785;SDS011;47474;48.824;9.384;2023-05-09T03:55:57;16.73;;;13.70;;
13785;SDS011;47474;48.824;9.384;2023-05-09T03:58:24;15.10;;;13.50;;
13785;SDS011;47474;48.824;9.384;2023-05-09T04:00:50;16.90;;;15.10;;
13785;SDS011;47474;48.824;9.384;2023-05-09T04:03:17;16.03;;;13.80;;
13785;SDS011;47474;48.824;9.384;2023-05-09T04:05:45;15.70;;;14.20;;
13785;SDS011;47474;48.824;9.384;2023-05-09T04:08:11;16.77;;;15.07;;
13785;SDS011;47474;48.824;9.384;2023-05-09T04:10:39;16.80;;;14.87;;
13785;SDS011;47474;48.824;9.384;2023-05-09T04:13:05;19.33;;;13.60;;
13785;SDS011;47474;48.824;9.384;2023-05-09T04:15:32;15.32;;;13.73;;
13785;SDS011;47474;48.824;9.384;2023-05-09T04:17:58;16.07;;;14.17;;
13785;SDS011;47474;48.824;9.384;2023-05-09T04:20:24;16.57;;;14.57;;
13785;SDS011;47474;48.824;9.384;2023-05-09T04:22:52;16.80;;;14.83;;
13785;SDS011;47474;48.824;9.384;2023-05-09T04:25:19;16.40;;;13.73;;
13785;SDS011;47474;48.824;9.384;2023-05-09T04:27:45;16.17;;;14.47;;
13785;SDS011;47474;48.824;9.384;2023-05-09T04:30:12;15.70;;;13.73;;
13785;SDS011;47474;48.824;9.384;2023-05-09T04:32:39;17.40;;;14.07;;
13785;SDS011;47474;48.824;9.384;2023-05-09T04:35:09;18.43;;;14.80;;
13785;SDS011;47474;48.824;9.384;2023-05-09T04:37:36;15.30;;;13.67;;
13785;SDS011;47474;48.824;9.384;2023-05-09T04:40:04;15.27;;;13.67;;
13785;SDS011;47474;48.824;9.384;2023-05-09T04:42:33;17.93;;;14.47;;
13785;SDS011;47474;48.824;9.384;2023-05-09T04:45:00;14.73;;;13.23;;
13785;SDS011;47474;48.824;9.384;2023-05-09T04:47:27;16.93;;;15.10;;
13785;SDS011;47474;48.824;9.384;2023-05-09T04:49:53;16.87;;;15.17;;
13785;SDS011;47474;48.824;9.384;2023-05-09T04:52:19;19.30;;;14.48;;
13785;SDS011;47474;48.824;9.384;2023-05-09T04:54:46;17.35;;;14.73;;
13785;SDS011;47474;48.824;9.384;2023-05-09T04:57:14;16.88;;;14.27;;
13785;SDS011;47474;48.824;9.384;2023-05-09T04:59:40;16.87;;;15.07;;
13785;SDS011;47474;48.824;9.384;2023-05-09T05:02:07;16.70;;;14.83;;
13785;SDS011;47474;48.824;9.384;2023-05-09T05:04:33;17.67;;;14.23;;
13785;SDS011;47474;48.824;9.384;2023-05-09T05:07:00;16.63;;;14.90;;
13785;SDS011;47474;48.824;9.384;2023-05-09T05:09:26;16.35;;;14.65;;
13785;SDS011;47474;48.824;9.384;2023-05-09T05:11:53;17.65;;;14.55;;
13785;SDS011;47474;48.824;9.384;2023-05-09T05:14:20;17.15;;;14.77;;
13785;SDS011;47474;48.824;9.384;2023-05-09T05:16:47;17.20;;;14.50;;
13785;SDS011;47474;48.824;9.384;2023-05-09T05:19:13;16.03;;;14.33;;
13785;SDS011;47474;48.824;9.384;2023-05-09T05:21:40;19.23;;;14.30;;
13785;SDS011;47474;48.824;9.384;2023-05-09T05:24:06;18.40;;;15.48;;
13785;SDS011;47474;48.824;9.384;2023-05-09T05:26:33;17.67;;;15.63;;
13785;SDS011;47474;48.824;9.384;2023-05-09T05:28:59;18.50;;;15.47;;
13785;SDS011;47474;48.824;9.384;2023-05-09T05:31:27;18.55;;;16.10;;
13785;SDS011;47474;48.824;9.384;2023-05-09T05:33:54;16.95;;;14.88;;
13785;SDS011;47474;48.824;9.384;2023-05-09T05:36:20;16.57;;;14.73;;
13785;SDS011;47474;48.824;9.384;2023-05-09T05:38:46;17.85;;;14.55;;
13785;SDS011;47474;48.824;9.384;2023-05-09T05:41:13;18.50;;;15.93;;
13785;SDS011;47474;48.824;9.384;2023-05-09T05:43:39;19.75;;;16.63;;
13785;SDS011;47474;48.824;9.384;2023-05-09T05:46:06;19.67;;;17.58;;
13785;SDS011;47474;48.824;9.384;2023-05-09T05:48:34;21.00;;;15.83;;
13785;SDS011;47474;48.824;9.384;2023-05-09T05:51:00;21.60;;;17.23;;
13785;SDS011;47474;48.824;9.384;2023-05-09T05:53:26;19.67;;;17.52;;
13785;SDS011;47474;48.824;9.384;2023-05-09T05:55:53;19.88;;;17.45;;
13785;SDS011;47474;48.824;9.384;2023-05-09T05:58:19;21.60;;;17.60;;
13785;SDS011;47474;48.824;9.384;2023-05-09T06:00:46;23.00;;;19.38;;
13785;SDS011;47474;48.824;9.384;2023-05-09T06:03:12;22.25;;;19.10;;
13785;SDS011;47474;48.824;9.384;2023-05-09T06:05:41;23.05;;;19.42;;
13785;SDS011;47474;48.824;9.384;2023-05-09T06:08:09;22.50;;;18.73;;
13785;SDS011;47474;48.824;9.384;2023-05-09T06:10:35;21.75;;;18.67;;
13785;SDS011;47474;48.824;9.384;2023-05-09T06:13:01;24.15;;;20.08;;
13785;SDS011;47474;48.824;9.384;2023-05-09T06:15:28;24.85;;;20.42;;
13785;SDS011;47474;48.824;9.384;2023-05-09T06:17:55;23.20;;;19.33;;
13785;SDS011;47474;48.824;9.384;2023-05-09T06:20:21;23.98;;;20.20;;
13785;SDS011;47474;48.824;9.384;2023-05-09T06:22:49;22.02;;;19.20;;
13785;SDS011;47474;48.824;9.384;2023-05-09T06:25:16;23.23;;;18.73;;
13785;SDS011;47474;48.824;9.384;2023-05-09T06:27:42;22.83;;;18.85;;
13785;SDS011;47474;48.824;9.384;2023-05-09T06:30:10;21.40;;;18.40;;
13785;SDS011;47474;48.824;9.384;2023-05-09T06:32:37;24.77;;;19.17;;
13785;SDS011;47474;48.824;9.384;2023-05-09T06:35:04;21.52;;;18.60;;
13785;SDS011;47474;48.824;9.384;2023-05-09T06:37:31;23.83;;;19.35;;
13785;SDS011;47474;48.824;9.384;2023-05-09T06:39:59;22.42;;;18.67;;
13785;SDS011;47474;48.824;9.384;2023-05-09T06:42:26;24.02;;;19.42;;
13785;SDS011;47474;48.824;9.384;2023-05-09T06:44:54;24.00;;;18.67;;
13785;SDS011;47474;48.824;9.384;2023-05-09T06:47:20;22.33;;;18.23;;
13785;SDS011;47474;48.824;9.384;2023-05-09T06:49:47;22.40;;;19.02;;
13785;SDS011;47474;48.824;9.384;2023-05-09T06:52:13;21.55;;;19.15;;
13785;SDS011;47474;48.824;9.384;2023-05-09T06:54:40;19.55;;;17.33;;
13785;SDS011;47474;48.824;9.384;2023-05-09T06:57:08;23.00;;;18.70;;
13785;SDS011;47474;48.824;9.384;2023-05-09T06:59:35;21.60;;;17.90;;
13785;SDS011;47474;48.824;9.384;2023-05-09T07:02:01;19.45;;;17.10;;
13785;SDS011;47474;48.824;9.384;2023-05-09T07:04:28;20.52;;;17.73;;
13785;SDS011;47474;48.824;9.384;2023-05-09T07:06:54;23.50;;;18.30;;
13785;SDS011;47474;48.824;9.384;2023-05-09T07:09:20;21.90;;;17.95;;
13785;SDS011;47474;48.824;9.384;2023-05-09T07:11:51;21.63;;;17.88;;
13785;SDS011;47474;48.824;9.384;2023-05-09T07:14:19;23.20;;;18.75;;
13785;SDS011;47474;48.824;9.384;2023-05-09T07:16:46;19.95;;;17.80;;
13785;SDS011;47474;48.824;9.384;2023-05-09T07:19:12;21.35;;;17.77;;
13785;SDS011;47474;48.824;9.384;2023-05-09T07:21:39;19.45;;;16.17;;
13785;SDS011;47474;48.824;9.384;2023-05-09T07:24:05;20.05;;;17.65;;
13785;SDS011;47474;48.824;9.384;2023-05-09T07:26:32;21.42;;;18.13;;
13785;SDS011;47474;48.824;9.384;2023-05-09T07:29:00;22.75;;;17.35;;
13785;SDS011;47474;48.824;9.384;2023-05-09T07:31:28;17.98;;;16.08;;
13785;SDS011;47474;48.824;9.384;2023-05-09T07:33:54;19.75;;;17.25;;
13785;SDS011;47474;48.824;9.384;2023-05-09T07:36:21;19.90;;;16.23;;
13785;SDS011;47474;48.824;9.384;2023-05-09T07:38:47;19.83;;;17.13;;
13785;SDS011;47474;48.824;9.384;2023-05-09T07:41:16;20.52;;;16.52;;
13785;SDS011;47474;48.824;9.384;2023-05-09T07:43:42;19.25;;;17.02;;
13785;SDS011;47474;48.824;9.384;2023-05-09T07:46:09;18.95;;;16.55;;
13785;SDS011;47474;48.824;9.384;2023-05-09T07:48:37;19.00;;;16.15;;
13785;SDS011;47474;48.824;9.384;2023-05-09T07:51:04;21.27;;;17.85;;
13785;SDS011;47474;48.824;9.384;2023-05-09T07:53:30;18.10;;;16.10;;
13785;SDS011;47474;48.824;9.384;2023-05-09T07:55:56;19.33;;;16.17;;
13785;SDS011;47474;48.824;9.384;2023-05-09T07:58:23;20.85;;;16.50;;
13785;SDS011;47474;48.824;9.384;2023-05-09T08:00:49;18.45;;;15.20;;
13785;SDS011;47474;48.824;9.384;2023-05-09T08:03:16;16.92;;;15.13;;
13785;SDS011;47474;48.824;9.384;2023-05-09T08:05:46;18.08;;;14.85;;
13785;SDS011;47474;48.824;9.384;2023-05-09T08:08:12;16.65;;;14.07;;
13785;SDS011;47474;48.824;9.384;2023-05-09T08:10:38;16.55;;;14.48;;
13785;SDS011;47474;48.824;9.384;2023-05-09T08:13:05;16.13;;;14.52;;
13785;SDS011;47474;48.824;9.384;2023-05-09T08:15:31;15.45;;;13.35;;
13785;SDS011;47474;48.824;9.384;2023-05-09T08:17:58;15.60;;;13.75;;
13785;SDS011;47474;48.824;9.384;2023-05-09T08:20:24;14.65;;;13.13;;
13785;SDS011;47474;48.824;9.384;2023-05-09T08:22:52;13.68;;;11.70;;
13785;SDS011;47474;48.824;9.384;2023-05-09T08:25:18;12.48;;;11.25;;
13785;SDS011;47474;48.824;9.384;2023-05-09T08:27:45;11.85;;;10.65;;
13785;SDS011;47474;48.824;9.384;2023-05-09T08:30:12;11.55;;;10.35;;
13785;SDS011;47474;48.824;9.384;2023-05-09T08:32:39;13.00;;;11.70;;
13785;SDS011;47474;48.824;9.384;2023-05-09T08:35:06;11.80;;;10.60;;
13785;SDS011;47474;48.824;9.384;2023-05-09T08:37:33;11.98;;;10.18;;
13785;SDS011;47474;48.824;9.384;2023-05-09T08:40:01;11.98;;;10.68;;
13785;SDS011;47474;48.824;9.384;2023-05-09T08:42:29;14.60;;;10.65;;
13785;SDS011;47474;48.824;9.384;2023-05-09T08:44:57;12.07;;;10.38;;
13785;SDS011;47474;48.824;9.384;2023-05-09T08:47:24;9.13;;;8.23;;
13785;SDS011;47474;48.824;9.384;2023-05-09T08:49:51;9.65;;;8.75;;
13785;SDS011;47474;48.824;9.384;2023-05-09T08:52:18;9.73;;;8.35;;
13785;SDS011;47474;48.824;9.384;2023-05-09T08:54:45;9.88;;;8.35;;
13785;SDS011;47474;48.824;9.384;2023-05-09T08:57:13;9.52;;;8.30;;
13785;SDS011;47474;48.824;9.384;2023-05-09T08:59:40;9.30;;;7.88;;
13785;SDS011;47474;48.824;9.384;2023-05-09T09:02:07;8.45;;;7.55;;
13785;SDS011;47474;48.824;9.384;2023-05-09T09:04:37;7.93;;;7.22;;
13785;SDS011;47474;48.824;9.384;2023-05-09T09:07:04;8.07;;;7.28;;
13785;SDS011;47474;48.824;9.384;2023-05-09T09:09:31;8.52;;;7.38;;
13785;SDS011;47474;48.824;9.384;2023-05-09T09:11:59;7.80;;;7.03;;
13785;SDS011;47474;48.824;9.384;2023-05-09T09:14:27;8.43;;;6.75;;
13785;SDS011;47474;48.824;9.384;2023-05-09T09:16:54;8.02;;;7.25;;
13785;SDS011;47474;48.824;9.384;2023-05-09T09:19:21;7.70;;;7.00;;
13785;SDS011;47474;48.824;9.384;2023-05-09T09:21:51;7.53;;;6.28;;
13785;SDS011;47474;48.824;9.384;2023-05-09T09:24:20;7.03;;;6.10;;
13785;SDS011;47474;48.824;9.384;2023-05-09T09:26:48;8.63;;;5.65;;
13785;SDS011;47474;48.824;9.384;2023-05-09T09:29:16;6.85;;;6.18;;
13785;SDS011;47474;48.824;9.384;2023-05-09T09:31:46;6.10;;;5.55;;
13785;SDS011;47474;48.824;9.384;2023-05-09T09:34:18;6.05;;;5.53;;
13785;SDS011;47474;48.824;9.384;2023-05-09T09:36:46;6.50;;;5.78;;
13785;SDS011;47474;48.824;9.384;2023-05-09T09:39:13;5.75;;;5.15;;
13785;SDS011;47474;48.824;9.384;2023-05-09T09:41:40;6.13;;;4.90;;
13785;SDS011;47474;48.824;9.384;2023-05-09T09:44:08;6.70;;;5.47;;
13785;SDS011;47474;48.824;9.384;2023-05-09T09:46:46;7.15;;;5.10;;
13785;SDS011;47474;48.824;9.384;2023-05-09T09:49:14;5.97;;;5.38;;
13785;SDS011;47474;48.824;9.384;2023-05-09T09:51:42;5.55;;;5.05;;
13785;SDS011;47474;48.824;9.384;2023-05-09T09:54:09;7.30;;;5.22;;
13785;SDS011;47474;48.824;9.384;2023-05-09T09:56:37;5.68;;;5.15;;
13785;SDS011;47474;48.824;9.384;2023-05-09T09:59:08;5.95;;;5.45;;
13785;SDS011;47474;48.824;9.384;2023-05-09T10:01:38;6.10;;;5.53;;
13785;SDS011;47474;48.824;9.384;2023-05-09T10:04:20;6.00;;;5.40;;
13785;SDS011;47474;48.824;9.384;2023-05-09T10:06:50;5.43;;;4.88;;
13785;SDS011;47474;48.824;9.384;2023-05-09T10:09:18;6.38;;;5.53;;
13785;SDS011;47474;48.824;9.384;2023-05-09T10:11:46;8.50;;;5.38;;
13785;SDS011;47474;48.824;9.384;2023-05-09T10:14:15;4.93;;;4.43;;
13785;SDS011;47474;48.824;9.384;2023-05-09T10:16:42;6.45;;;5.85;;
13785;SDS011;47474;48.824;9.384;2023-05-09T10:19:10;6.35;;;5.35;;
13785;SDS011;47474;48.824;9.384;2023-05-09T10:21:37;5.50;;;5.05;;
13785;SDS011;47474;48.824;9.384;2023-05-09T10:24:04;6.80;;;6.10;;
13785;SDS011;47474;48.824;9.384;2023-05-09T10:26:32;6.18;;;5.57;;
13785;SDS011;47474;48.824;9.384;2023-05-09T10:29:00;6.38;;;5.72;;
13785;SDS011;47474;48.824;9.384;2023-05-09T10:31:32;6.80;;;6.10;;
13785;SDS011;47474;48.824;9.384;2023-05-09T10:34:04;6.05;;;5.15;;
13785;SDS011;47474;48.824;9.384;2023-05-09T10:36:33;5.68;;;5.18;;
13785;SDS011;47474;48.824;9.384;2023-05-09T10:39:00;7.05;;;4.60;;
13785;SDS011;47474;48.824;9.384;2023-05-09T10:41:27;5.22;;;4.78;;
13785;SDS011;47474;48.824;9.384;2023-05-09T10:43:54;7.05;;;5.15;;
13785;SDS011;47474;48.824;9.384;2023-05-09T10:46:21;6.32;;;5.82;;
13785;SDS011;47474;48.824;9.384;2023-05-09T10:48:48;7.22;;;6.53;;
13785;SDS011;47474;48.824;9.384;2023-05-09T10:51:15;6.88;;;5.82;;
13785;SDS011;47474;48.824;9.384;2023-05-09T10:53:44;8.52;;;6.45;;
13785;SDS011;47474;48.824;9.384;2023-05-09T10:56:21;6.63;;;5.93;;
13785;SDS011;47474;48.824;9.384;2023-05-09T10:58:49;8.15;;;7.00;;
13785;SDS011;47474;48.824;9.384;2023-05-09T11:01:26;7.13;;;6.43;;
13785;SDS011;47474;48.824;9.384;2023-05-09T11:03:55;7.97;;;6.13;;
13785;SDS011;47474;48.824;9.384;2023-05-09T11:06:41;7.97;;;7.18;;
13785;SDS011;47474;48.824;9.384;2023-05-09T11:09:28;7.30;;;6.53;;
13785;SDS011;47474;48.824;9.384;2023-05-09T11:11:58;6.65;;;5.75;;
13785;SDS011;47474;48.824;9.384;2023-05-09T11:14:29;7.20;;;6.35;;
13785;SDS011;47474;48.824;9.384;2023-05-09T11:17:04;6.82;;;5.82;;
13785;SDS011;47474;48.824;9.384;2023-05-09T11:19:32;12.73;;;11.27;;
13785;SDS011;47474;48.824;9.384;2023-05-09T11:22:00;9.30;;;6.65;;
13785;SDS011;47474;48.824;9.384;2023-05-09T11:24:29;6.40;;;5.80;;
13785;SDS011;47474;48.824;9.384;2023-05-09T11:26:56;4.70;;;4.30;;
13785;SDS011;47474;48.824;9.384;2023-05-09T11:29:25;5.22;;;4.00;;
13785;SDS011;47474;48.824;9.384;2023-05-09T11:32:04;4.15;;;3.83;;
13785;SDS011;47474;48.824;9.384;2023-05-09T11:34:31;5.03;;;4.53;;
13785;SDS011;47474;48.824;9.384;2023-05-09T11:37:05;4.25;;;3.85;;
13785;SDS011;47474;48.824;9.384;2023-05-09T11:39:34;5.10;;;4.35;;
13785;SDS011;47474;48.824;9.384;2023-05-09T11:42:01;4.72;;;4.32;;
13785;SDS011;47474;48.824;9.384;2023-05-09T11:44:29;5.40;;;4.65;;
13785;SDS011;47474;48.824;9.384;2023-05-09T11:46:57;5.68;;;5.18;;
13785;SDS011;47474;48.824;9.384;2023-05-09T11:49:24;5.32;;;4.82;;
13785;SDS011;47474;48.824;9.384;2023-05-09T11:51:50;5.97;;;5.40;;
13785;SDS011;47474;48.824;9.384;2023-05-09T11:54:17;6.00;;;5.40;;
13785;SDS011;47474;48.824;9.384;2023-05-09T11:56:45;6.15;;;5.55;;
13785;SDS011;47474;48.824;9.384;2023-05-09T11:59:11;6.68;;;4.95;;
13785;SDS011;47474;48.824;9.384;2023-05-09T12:01:39;5.18;;;4.75;;
13785;SDS011;47474;48.824;9.384;2023-05-09T12:04:06;9.00;;;5.30;;
13785;SDS011;47474;48.824;9.384;2023-05-09T12:06:33;5.40;;;4.90;;
13785;SDS011;47474;48.824;9.384;2023-05-09T12:08:59;5.35;;;4.63;;
13785;SDS011;47474;48.824;9.384;2023-05-09T12:11:25;5.40;;;4.90;;
13785;SDS011;47474;48.824;9.384;2023-05-09T12:13:57;4.78;;;4.38;;
13785;SDS011;47474;48.824;9.384;2023-05-09T12:16:24;5.20;;;4.80;;
13785;SDS011;47474;48.824;9.384;2023-05-09T12:18:51;4.78;;;4.38;;
13785;SDS011;47474;48.824;9.384;2023-05-09T12:21:18;4.47;;;4.07;;
13785;SDS011;47474;48.824;9.384;2023-05-09T12:23:45;5.72;;;4.72;;
13785;SDS011;47474;48.824;9.384;2023-05-09T12:26:12;5.65;;;5.05;;
13785;SDS011;47474;48.824;9.384;2023-05-09T12:28:39;5.60;;;4.95;;
13785;SDS011;47474;48.824;9.384;2023-05-09T12:31:07;4.95;;;4.45;;
13785;SDS011;47474;48.824;9.384;2023-05-09T12:33:35;7.07;;;4.68;;
13785;SDS011;47474;48.824;9.384;2023-05-09T12:36:04;4.65;;;4.25;;
13785;SDS011;47474;48.824;9.384;2023-05-09T12:38:31;4.05;;;3.75;;
13785;SDS011;47474;48.824;9.384;2023-05-09T12:40:58;4.28;;;3.88;;
13785;SDS011;47474;48.824;9.384;2023-05-09T12:43:28;4.28;;;3.88;;
13785;SDS011;47474;48.824;9.384;2023-05-09T12:45:55;4.32;;;3.90;;
13785;SDS011;47474;48.824;9.384;2023-05-09T12:48:24;3.72;;;3.42;;
13785;SDS011;47474;48.824;9.384;2023-05-09T12:50:50;3.65;;;3.33;;
13785;SDS011;47474;48.824;9.384;2023-05-09T12:53:22;4.47;;;4.07;;
13785;SDS011;47474;48.824;9.384;2023-05-09T12:55:48;3.95;;;3.58;;
13785;SDS011;47474;48.824;9.384;2023-05-09T12:58:15;4.28;;;3.75;;
13785;SDS011;47474;48.824;9.384;2023-05-09T13:00:42;6.22;;;3.80;;
13785;SDS011;47474;48.824;9.384;2023-05-09T13:03:21;3.40;;;3.15;;
13785;SDS011;47474;48.824;9.384;2023-05-09T13:05:54;3.45;;;3.15;;
13785;SDS011;47474;48.824;9.384;2023-05-09T13:08:24;3.28;;;3.00;;
13785;SDS011;47474;48.824;9.384;2023-05-09T13:10:51;3.38;;;3.08;;
13785;SDS011;47474;48.824;9.384;2023-05-09T13:13:17;3.83;;;3.50;;
13785;SDS011;47474;48.824;9.384;2023-05-09T13:15:44;5.85;;;3.20;;
13785;SDS011;47474;48.824;9.384;2023-05-09T13:18:11;5.95;;;3.70;;
13785;SDS011;47474;48.824;9.384;2023-05-09T13:20:39;3.70;;;3.40;;
13785;SDS011;47474;48.824;9.384;2023-05-09T13:23:06;3.38;;;3.08;;
13785;SDS011;47474;48.824;9.384;2023-05-09T13:25:32;4.25;;;3.40;;
13785;SDS011;47474;48.824;9.384;2023-05-09T13:27:59;3.50;;;3.20;;
13785;SDS011;47474;48.824;9.384;2023-05-09T13:30:25;3.47;;;3.10;;
13785;SDS011;47474;48.824;9.384;2023-05-09T13:32:52;4.03;;;3.33;;
13785;SDS011;47474;48.824;9.384;2023-05-09T13:35:18;6.78;;;3.65;;
13785;SDS011;47474;48.824;9.384;2023-05-09T13:37:46;3.45;;;2.97;;
13785;SDS011;47474;48.824;9.384;2023-05-09T13:40:13;4.05;;;3.28;;
13785;SDS011;47474;48.824;9.384;2023-05-09T13:42:39;3.03;;;2.78;;
13785;SDS011;47474;48.824;9.384;2023-05-09T13:45:06;3.47;;;2.90;;
13785;SDS011;47474;48.824;9.384;2023-05-09T13:47:33;3.70;;;2.78;;
13785;SDS011;47474;48.824;9.384;2023-05-09T13:50:00;4.65;;;3.08;;
13785;SDS011;47474;48.824;9.384;2023-05-09T13:52:27;2.60;;;2.40;;
13785;SDS011;47474;48.824;9.384;2023-05-09T13:54:54;2.70;;;2.50;;
13785;SDS011;47474;48.824;9.384;2023-05-09T13:57:21;3.10;;;2.60;;
13785;SDS011;47474;48.824;9.384;2023-05-09T13:59:47;3.95;;;2.42;;
13785;SDS011;47474;48.824;9.384;2023-05-09T14:02:14;2.72;;;2.53;;
13785;SDS011;47474;48.824;9.384;2023-05-09T14:04:41;3.22;;;2.90;;
13785;SDS011;47474;48.824;9.384;2023-05-09T14:07:07;2.88;;;2.67;;
13785;SDS011;47474;48.824;9.384;2023-05-09T14:09:36;2.60;;;2.40;;
13785;SDS011;47474;48.824;9.384;2023-05-09T14:12:05;3.40;;;2.75;;
13785;SDS011;47474;48.824;9.384;2023-05-09T14:14:32;2.65;;;2.42;;
13785;SDS011;47474;48.824;9.384;2023-05-09T14:16:58;2.58;;;2.38;;
13785;SDS011;47474;48.824;9.384;2023-05-09T14:19:25;4.68;;;2.60;;
13785;SDS011;47474;48.824;9.384;2023-05-09T14:21:52;2.90;;;2.70;;
13785;SDS011;47474;48.824;9.384;2023-05-09T14:24:18;2.75;;;2.55;;
13785;SDS011;47474;48.824;9.384;2023-05-09T14:26:45;2.63;;;2.42;;
13785;SDS011;47474;48.824;9.384;2023-05-09T14:29:13;2.88;;;2.58;;
13785;SDS011;47474;48.824;9.384;2023-05-09T14:31:39;2.60;;;2.40;;
13785;SDS011;47474;48.824;9.384;2023-05-09T14:34:06;2.65;;;2.45;;